createdAt,value
2022-11-28T00:01:06.350Z,5.13
2022-11-28T00:03:34.932Z,5.53
2022-11-28T00:06:06.060Z,5.05
2022-11-28T00:08:33.942Z,5.80
2022-11-28T00:11:09.803Z,4.97
2022-11-28T00:13:40.145Z,5.38
2022-11-28T00:16:08.639Z,5.75
2022-11-28T00:18:36.779Z,5.57
2022-11-28T00:21:06.404Z,4.88
2022-11-28T00:23:33.532Z,5.55
2022-11-28T00:26:03.254Z,5.28
2022-11-28T00:28:29.919Z,5.47
2022-11-28T00:30:56.521Z,4.90
2022-11-28T00:33:23.659Z,4.85
2022-11-28T00:35:50.307Z,5.32
2022-11-28T00:38:16.936Z,5.43
2022-11-28T00:40:46.590Z,4.60
2022-11-28T00:43:13.358Z,4.22
2022-11-28T00:45:39.959Z,5.00
2022-11-28T00:48:06.678Z,4.30
2022-11-28T00:50:33.256Z,4.15
2022-11-28T00:53:00.244Z,4.55
2022-11-28T00:55:28.803Z,4.80
2022-11-28T00:57:55.439Z,4.97
2022-11-28T01:00:22.604Z,4.82
2022-11-28T01:02:49.983Z,4.43
2022-11-28T01:05:16.790Z,4.50
2022-11-28T01:07:43.458Z,4.90
2022-11-28T01:10:12.561Z,4.57
2022-11-28T01:12:39.192Z,4.47
2022-11-28T01:15:09.586Z,4.57
2022-11-28T01:17:36.595Z,4.95
2022-11-28T01:20:06.490Z,4.60
2022-11-28T01:22:33.092Z,4.47
2022-11-28T01:24:59.937Z,4.07
2022-11-28T01:27:26.673Z,4.07
2022-11-28T01:29:53.397Z,4.00
2022-11-28T01:32:20.027Z,4.05
2022-11-28T01:34:46.606Z,3.75
2022-11-28T01:37:13.176Z,3.85
2022-11-28T01:39:40.545Z,3.70
2022-11-28T01:42:07.128Z,3.70
2022-11-28T01:44:33.640Z,4.30
2022-11-28T01:47:00.270Z,4.03
2022-11-28T01:49:37.573Z,3.95
2022-11-28T01:52:14.753Z,4.30
2022-11-28T01:54:44.304Z,4.15
2022-11-28T01:57:20.396Z,3.88
2022-11-28T01:59:53.940Z,3.83
2022-11-28T02:02:29.035Z,4.15
2022-11-28T02:04:55.731Z,4.05
2022-11-28T02:07:22.456Z,4.32
2022-11-28T02:09:49.137Z,4.10
2022-11-28T02:12:41.985Z,3.72
2022-11-28T02:15:24.231Z,3.40
2022-11-28T02:18:08.687Z,3.92
2022-11-28T02:20:52.142Z,4.13
2022-11-28T02:23:36.809Z,3.88
2022-11-28T02:26:41.640Z,4.05
2022-11-28T02:29:37.529Z,3.97
2022-11-28T02:32:13.836Z,4.00
2022-11-28T02:34:47.031Z,3.78
2022-11-28T02:37:36.916Z,4.07
2022-11-28T02:40:29.349Z,4.40
2022-11-28T02:43:17.888Z,5.25
2022-11-28T02:46:20.598Z,4.70
2022-11-28T02:49:03.263Z,4.38
2022-11-28T02:51:40.878Z,4.10
2022-11-28T02:54:12.017Z,4.70
2022-11-28T02:56:38.633Z,4.60
2022-11-28T02:59:25.287Z,5.13
2022-11-28T03:07:13.016Z,4.38
2022-11-28T03:10:13.187Z,4.13
2022-11-28T03:13:00.667Z,3.90
2022-11-28T03:15:43.261Z,4.00
2022-11-28T03:18:09.801Z,4.43
2022-11-28T03:20:53.218Z,4.38
2022-11-28T03:23:25.138Z,4.43
2022-11-28T03:25:59.305Z,4.65
2022-11-28T03:28:43.376Z,5.32
2022-11-28T03:31:19.519Z,5.07
2022-11-28T03:33:52.349Z,5.38
2022-11-28T03:36:24.152Z,4.40
2022-11-28T03:39:00.087Z,4.82
2022-11-28T03:41:36.316Z,3.35
2022-11-28T03:46:41.802Z,4.68
2022-11-28T03:49:09.650Z,4.72
2022-11-28T03:51:48.181Z,5.10
2022-11-28T03:54:37.481Z,5.20
2022-11-28T03:57:15.636Z,4.88
2022-11-28T03:59:47.532Z,4.95
2022-11-28T04:02:36.287Z,5.22
2022-11-28T04:05:18.057Z,5.70
2022-11-28T04:07:55.761Z,5.10
2022-11-28T04:11:01.016Z,4.85
2022-11-28T04:13:34.846Z,4.95
2022-11-28T04:16:06.434Z,5.22
2022-11-28T04:18:43.517Z,5.45
2022-11-28T04:21:19.049Z,5.13
2022-11-28T04:23:48.112Z,5.65
2022-11-28T04:26:23.250Z,5.40
2022-11-28T04:28:52.381Z,5.65
2022-11-28T04:31:22.818Z,6.05
2022-11-28T04:33:56.345Z,6.88
2022-11-28T04:36:26.028Z,7.80
2022-11-28T04:38:56.605Z,5.82
2022-11-28T04:41:34.435Z,6.32
2022-11-28T04:44:17.824Z,6.50
2022-11-28T04:46:48.529Z,6.60
2022-11-28T04:49:15.390Z,6.15
2022-11-28T04:52:01.477Z,5.93
2022-11-28T04:55:04.916Z,5.32
2022-11-28T04:57:50.680Z,6.60
2022-11-28T05:00:22.339Z,7.40
2022-11-28T05:02:52.533Z,6.22
2022-11-28T05:05:23.299Z,6.18
2022-11-28T05:07:50.002Z,6.20
2022-11-28T05:10:17.852Z,7.57
2022-11-28T05:12:44.449Z,7.63
2022-11-28T05:15:12.321Z,6.18
2022-11-28T05:17:42.436Z,6.07
2022-11-28T05:20:09.707Z,7.78
2022-11-28T05:22:36.308Z,7.43
2022-11-28T05:25:03.108Z,7.55
2022-11-28T05:27:29.791Z,8.73
2022-11-28T05:29:56.397Z,7.35
2022-11-28T05:32:23.505Z,8.40
2022-11-28T05:34:50.086Z,7.95
2022-11-28T05:37:16.628Z,9.18
2022-11-28T05:39:43.298Z,9.52
2022-11-28T05:42:10.108Z,9.63
2022-11-28T05:44:37.566Z,9.05
2022-11-28T05:47:04.311Z,9.20
2022-11-28T05:49:30.931Z,7.95
2022-11-28T05:51:57.529Z,7.47
2022-11-28T05:54:24.209Z,7.93
2022-11-28T05:56:50.827Z,7.45
2022-11-28T05:59:17.403Z,7.38
2022-11-28T06:01:44.195Z,6.90
2022-11-28T06:04:10.823Z,8.25
2022-11-28T06:06:37.471Z,7.70
2022-11-28T06:09:06.572Z,6.97
2022-11-28T06:11:34.461Z,6.97
2022-11-28T06:14:03.096Z,7.97
2022-11-28T06:16:31.826Z,7.97
2022-11-28T06:19:01.587Z,7.53
2022-11-28T06:21:29.738Z,7.60
2022-11-28T06:24:00.664Z,8.50
2022-11-28T06:26:28.760Z,8.80
2022-11-28T06:28:55.813Z,8.90
2022-11-28T06:31:25.562Z,8.63
2022-11-28T06:33:52.177Z,10.23
2022-11-28T06:36:19.484Z,9.73
2022-11-28T06:38:46.664Z,10.35
2022-11-28T06:41:16.260Z,10.85
2022-11-28T06:43:43.134Z,9.77
2022-11-28T06:46:16.453Z,9.65
2022-11-28T06:48:43.802Z,10.02
2022-11-28T06:51:11.356Z,9.05
2022-11-28T06:53:38.716Z,11.02
2022-11-28T06:56:07.978Z,11.20
2022-11-28T06:58:35.350Z,10.15
2022-11-28T07:01:11.776Z,9.82
2022-11-28T07:03:39.454Z,8.00
2022-11-28T07:06:06.996Z,9.10
2022-11-28T07:08:34.678Z,7.32
2022-11-28T07:11:14.561Z,8.23
2022-11-28T07:13:43.563Z,8.05
2022-11-28T07:16:16.784Z,7.07
2022-11-28T07:18:44.057Z,7.97
2022-11-28T07:21:12.430Z,8.60
2022-11-28T07:23:38.992Z,7.90
2022-11-28T07:26:06.093Z,8.90
2022-11-28T07:28:34.896Z,7.93
2022-11-28T07:31:07.668Z,8.50
2022-11-28T07:33:35.358Z,7.57
2022-11-28T07:36:04.126Z,7.25
2022-11-28T07:38:31.194Z,7.50
2022-11-28T07:41:12.272Z,7.43
2022-11-28T07:43:40.023Z,6.88
2022-11-28T07:46:09.166Z,6.70
2022-11-28T07:48:37.169Z,7.00
2022-11-28T07:51:14.057Z,5.95
2022-11-28T07:53:41.047Z,7.18
2022-11-28T07:56:15.231Z,8.15
2022-11-28T07:58:43.871Z,7.15
2022-11-28T08:01:19.036Z,7.85
2022-11-28T08:03:46.662Z,8.45
2022-11-28T08:06:14.577Z,7.10
2022-11-28T08:08:41.466Z,7.88
2022-11-28T08:11:10.088Z,7.78
2022-11-28T08:13:39.963Z,7.20
2022-11-28T08:16:09.078Z,7.32
2022-11-28T08:18:37.043Z,7.40
2022-11-28T08:21:26.197Z,7.70
2022-11-28T08:23:54.634Z,7.30
2022-11-28T08:26:27.497Z,6.35
2022-11-28T08:28:58.918Z,6.53
2022-11-28T08:31:29.285Z,8.60
2022-11-28T08:33:58.253Z,6.50
2022-11-28T08:36:28.296Z,6.10
2022-11-28T08:41:43.612Z,6.60
2022-11-28T08:44:10.190Z,6.47
2022-11-28T08:46:37.047Z,7.15
2022-11-28T08:49:04.803Z,6.38
2022-11-28T08:51:31.920Z,7.05
2022-11-28T08:54:01.189Z,6.68
2022-11-28T08:56:28.832Z,7.13
2022-11-28T08:58:55.852Z,7.03
2022-11-28T09:01:24.541Z,7.15
2022-11-28T09:03:52.579Z,6.28
2022-11-28T09:06:20.953Z,6.32
2022-11-28T09:08:48.122Z,6.70
2022-11-28T09:11:17.644Z,6.75
2022-11-28T09:13:51.158Z,6.40
2022-11-28T09:16:20.700Z,6.88
2022-11-28T09:18:47.357Z,6.15
2022-11-28T09:21:15.375Z,6.90
2022-11-28T09:23:44.630Z,7.28
2022-11-28T09:26:16.042Z,7.55
2022-11-28T09:28:43.260Z,6.97
2022-11-28T09:31:12.133Z,7.35
2022-11-28T09:33:38.870Z,7.30
2022-11-28T09:36:15.004Z,7.55
2022-11-28T09:38:42.229Z,6.93
2022-11-28T09:41:40.657Z,8.02
2022-11-28T09:44:36.336Z,7.70
2022-11-28T09:47:09.066Z,7.80
2022-11-28T09:53:24.911Z,7.78
2022-11-28T09:55:57.665Z,7.30
2022-11-28T09:58:45.941Z,6.82
2022-11-28T10:01:21.379Z,7.00
2022-11-28T10:04:09.143Z,8.07
2022-11-28T10:07:02.423Z,7.32
2022-11-28T10:09:34.763Z,7.55
2022-11-28T10:12:29.137Z,7.63
2022-11-28T10:15:18.189Z,7.40
2022-11-28T10:18:06.107Z,8.10
2022-11-28T10:20:46.097Z,7.93
2022-11-28T10:23:36.850Z,6.80
2022-11-28T10:26:09.756Z,8.27
2022-11-28T10:28:43.941Z,8.20
2022-11-28T10:31:23.168Z,8.38
2022-11-28T10:33:58.918Z,18.27
2022-11-28T10:36:34.980Z,7.97
2022-11-28T10:39:11.369Z,7.82
2022-11-28T10:42:07.992Z,7.07
2022-11-28T10:44:44.729Z,6.63
2022-11-28T10:47:28.897Z,6.47
2022-11-28T10:50:06.721Z,7.47
2022-11-28T10:52:46.847Z,7.97
2022-11-28T10:55:53.451Z,7.22
2022-11-28T10:58:23.000Z,6.60
2022-11-28T11:00:53.575Z,6.78
2022-11-28T11:03:28.270Z,6.47
2022-11-28T11:05:54.863Z,7.38
2022-11-28T11:08:31.032Z,7.78
2022-11-28T11:11:28.734Z,7.45
2022-11-28T11:13:58.918Z,7.10
2022-11-28T11:16:59.009Z,9.20
2022-11-28T11:19:32.875Z,8.18
2022-11-28T11:22:16.054Z,7.90
2022-11-28T11:24:42.709Z,11.88
2022-11-28T11:27:21.942Z,10.25
2022-11-28T11:30:00.391Z,9.32
2022-11-28T11:32:30.018Z,7.95
2022-11-28T11:35:02.697Z,7.43
2022-11-28T11:37:33.662Z,6.72
2022-11-28T11:40:02.437Z,5.93
2022-11-28T11:42:32.099Z,6.22
2022-11-28T11:45:27.300Z,6.13
2022-11-28T11:47:53.971Z,6.60
2022-11-28T11:50:55.569Z,5.63
2022-11-28T11:53:22.966Z,6.00
2022-11-28T11:55:52.918Z,6.05
2022-11-28T11:58:25.465Z,6.22
2022-11-28T12:00:56.211Z,5.70
2022-11-28T12:03:53.760Z,6.25
2022-11-28T12:06:25.569Z,5.70
2022-11-28T12:09:07.457Z,5.97
2022-11-28T12:11:50.855Z,5.78
2022-11-28T12:14:37.309Z,5.90
2022-11-28T12:17:51.416Z,6.53
2022-11-28T12:20:50.908Z,5.90
2022-11-28T12:23:43.881Z,6.28
2022-11-28T12:26:35.566Z,5.50
2022-11-28T12:29:09.426Z,6.25
2022-11-28T12:31:43.560Z,6.72
2022-11-28T12:34:34.394Z,7.03
2022-11-28T12:37:02.202Z,6.68
2022-11-28T12:39:49.828Z,7.38
2022-11-28T12:42:28.190Z,6.72
2022-11-28T12:45:13.439Z,7.07
2022-11-28T12:47:50.581Z,6.40
2022-11-28T12:50:25.068Z,6.72
2022-11-28T12:52:51.605Z,6.00
2022-11-28T12:55:51.887Z,6.53
2022-11-28T12:58:25.211Z,6.57
2022-11-28T13:01:08.923Z,6.60
2022-11-28T13:03:53.868Z,6.60
2022-11-28T13:06:32.251Z,6.28
2022-11-28T13:09:11.218Z,5.80
2022-11-28T13:12:15.424Z,6.35
2022-11-28T13:14:57.428Z,6.80
2022-11-28T13:17:43.933Z,6.85
2022-11-28T13:20:36.006Z,7.00
2022-11-28T13:23:28.602Z,7.63
2022-11-28T13:26:09.283Z,7.57
2022-11-28T13:28:47.898Z,7.38
2022-11-28T13:31:24.129Z,7.50
2022-11-28T13:33:56.010Z,7.32
2022-11-28T13:39:47.107Z,6.88
2022-11-28T13:43:02.436Z,7.18
2022-11-28T13:45:32.206Z,6.90
2022-11-28T13:48:01.223Z,6.78
2022-11-28T13:50:39.283Z,7.60
2022-11-28T13:53:10.479Z,7.25
2022-11-28T13:55:46.983Z,8.23
2022-11-28T13:58:19.474Z,10.88
2022-11-28T14:01:17.859Z,6.82
2022-11-28T14:03:49.383Z,6.53
2022-11-28T14:06:28.371Z,6.90
2022-11-28T14:09:17.132Z,6.60
2022-11-28T14:11:52.506Z,7.15
2022-11-28T14:14:31.491Z,6.83
2022-11-28T14:17:23.688Z,7.60
2022-11-28T14:20:14.252Z,6.75
2022-11-28T14:23:11.588Z,7.55
2022-11-28T14:25:45.748Z,7.03
2022-11-28T14:28:37.750Z,7.25
2022-11-28T14:31:30.403Z,6.70
2022-11-28T14:33:59.838Z,7.13
2022-11-28T14:36:41.872Z,6.25
2022-11-28T14:39:14.611Z,6.50
2022-11-28T14:42:03.401Z,7.35
2022-11-28T14:44:50.522Z,6.35
2022-11-28T14:47:35.647Z,6.47
2022-11-28T14:50:05.233Z,6.60
2022-11-28T14:52:40.708Z,6.63
2022-11-28T14:55:10.968Z,6.60
2022-11-28T14:57:51.350Z,6.90
2022-11-28T15:00:28.602Z,6.97
2022-11-28T15:03:04.374Z,6.40
2022-11-28T15:05:44.698Z,7.22
2022-11-28T15:08:32.642Z,7.07
2022-11-28T15:10:59.317Z,8.13
2022-11-28T15:13:28.557Z,7.45
2022-11-28T15:16:06.520Z,8.52
2022-11-28T15:18:34.158Z,8.13
2022-11-28T15:21:05.587Z,7.85
2022-11-28T15:23:39.174Z,7.80
2022-11-28T15:26:06.902Z,8.35
2022-11-28T15:28:35.612Z,8.00
2022-11-28T15:31:05.773Z,8.35
2022-11-28T15:33:33.724Z,7.88
2022-11-28T15:36:24.484Z,7.00
2022-11-28T15:38:57.493Z,7.53
2022-11-28T15:41:27.444Z,7.97
2022-11-28T15:43:56.405Z,8.10
2022-11-28T15:46:45.819Z,8.40
2022-11-28T15:49:26.532Z,7.85
2022-11-28T15:52:06.760Z,7.72
2022-11-28T15:54:48.417Z,8.02
2022-11-28T15:57:21.328Z,7.72
2022-11-28T15:59:47.978Z,7.35
2022-11-28T16:02:34.007Z,7.72
2022-11-28T16:05:21.341Z,7.57
2022-11-28T16:07:50.936Z,8.32
2022-11-28T16:10:35.049Z,8.18
2022-11-28T16:13:09.611Z,8.07
2022-11-28T16:15:37.082Z,7.63
2022-11-28T16:18:03.986Z,8.50
2022-11-28T16:20:36.741Z,7.38
2022-11-28T16:23:23.551Z,7.95
2022-11-28T16:26:01.506Z,8.02
2022-11-28T16:28:59.944Z,7.75
2022-11-28T16:31:28.425Z,7.68
2022-11-28T16:33:55.509Z,7.75
2022-11-28T16:36:24.620Z,7.95
2022-11-28T16:39:04.853Z,8.35
2022-11-28T16:41:32.230Z,7.97
2022-11-28T16:44:18.800Z,8.27
2022-11-28T16:46:57.659Z,9.23
2022-11-28T16:49:30.387Z,8.88
2022-11-28T16:52:28.973Z,8.57
2022-11-28T16:54:56.544Z,8.73
2022-11-28T16:57:26.513Z,8.18
2022-11-28T16:59:56.744Z,8.05
2022-11-28T17:02:28.349Z,8.50
2022-11-28T17:04:54.914Z,8.88
2022-11-28T17:07:23.568Z,9.25
2022-11-28T17:09:51.549Z,10.07
2022-11-28T17:12:29.882Z,9.73
2022-11-28T17:14:59.149Z,9.00
2022-11-28T17:17:26.067Z,9.93
2022-11-28T17:19:52.881Z,9.40
2022-11-28T17:22:25.662Z,9.43
2022-11-28T17:24:59.494Z,10.07
2022-11-28T17:27:26.150Z,9.73
2022-11-28T17:29:52.712Z,8.95
2022-11-28T17:32:19.324Z,9.52
2022-11-28T17:34:46.243Z,9.82
2022-11-28T17:37:13.393Z,10.27
2022-11-28T17:39:40.036Z,10.10
2022-11-28T17:42:06.685Z,10.20
2022-11-28T17:44:37.683Z,9.65
2022-11-28T17:47:04.393Z,10.13
2022-11-28T17:49:31.228Z,10.38
2022-11-28T17:51:57.938Z,10.65
2022-11-28T17:54:28.662Z,10.98
2022-11-28T17:56:55.725Z,11.27
2022-11-28T17:59:25.668Z,10.68
2022-11-28T18:01:52.345Z,10.75
2022-11-28T18:04:19.504Z,10.73
2022-11-28T18:06:47.437Z,12.15
2022-11-28T18:09:14.851Z,10.55
2022-11-28T18:11:42.609Z,11.15
2022-11-28T18:14:10.010Z,11.07
2022-11-28T18:16:39.689Z,11.27
2022-11-28T18:19:06.392Z,11.20
2022-11-28T18:21:33.917Z,12.15
2022-11-28T18:24:00.517Z,11.13
2022-11-28T18:26:27.318Z,11.93
2022-11-28T18:28:55.733Z,13.60
2022-11-28T18:31:25.647Z,13.02
2022-11-28T18:33:57.368Z,13.82
2022-11-28T18:36:27.549Z,11.73
2022-11-28T18:38:55.895Z,12.77
2022-11-28T18:41:22.506Z,12.93
2022-11-28T18:43:49.166Z,13.05
2022-11-28T18:46:19.161Z,13.52
2022-11-28T18:48:47.610Z,11.95
2022-11-28T18:51:22.887Z,12.88
2022-11-28T18:53:50.853Z,13.03
2022-11-28T18:56:18.058Z,12.35
2022-11-28T18:58:47.761Z,12.25
2022-11-28T19:01:15.757Z,14.07
2022-11-28T19:03:43.377Z,15.43
2022-11-28T19:06:12.798Z,13.68
2022-11-28T19:08:40.261Z,14.43
2022-11-28T19:11:11.461Z,15.35
2022-11-28T19:13:42.223Z,14.48
2022-11-28T19:16:11.493Z,14.88
2022-11-28T19:18:39.591Z,15.25
2022-11-28T19:21:08.241Z,15.25
2022-11-28T19:23:35.468Z,13.93
2022-11-28T19:26:07.560Z,13.73
2022-11-28T19:28:38.720Z,13.65
2022-11-28T19:31:15.225Z,13.73
2022-11-28T19:33:44.201Z,14.40
2022-11-28T19:36:12.995Z,14.30
2022-11-28T19:38:40.168Z,14.57
2022-11-28T19:41:14.690Z,14.48
2022-11-28T19:43:42.166Z,15.90
2022-11-28T19:46:10.423Z,16.55
2022-11-28T19:48:39.056Z,17.55
2022-11-28T19:51:06.674Z,16.83
2022-11-28T19:53:35.297Z,16.75
2022-11-28T19:56:08.011Z,20.30
2022-11-28T19:58:35.582Z,19.67
2022-11-28T20:01:16.655Z,20.23
2022-11-28T20:03:44.151Z,21.70
2022-11-28T20:06:31.430Z,22.27
2022-11-28T20:09:01.298Z,22.92
2022-11-28T20:11:34.901Z,26.45
2022-11-28T20:14:07.982Z,29.13
2022-11-28T20:16:35.915Z,27.85
2022-11-28T20:19:03.156Z,26.58
2022-11-28T20:21:30.606Z,32.90
2022-11-28T20:24:02.720Z,33.83
2022-11-28T20:26:30.112Z,35.55
2022-11-28T20:28:57.055Z,33.55
2022-11-28T20:31:27.934Z,38.88
2022-11-28T20:33:54.932Z,39.63
2022-11-28T20:36:24.649Z,33.45
2022-11-28T20:38:52.668Z,27.25
2022-11-28T20:41:20.743Z,25.13
2022-11-28T20:43:47.381Z,22.05
2022-11-28T20:46:19.185Z,19.85
2022-11-28T20:48:46.214Z,17.20
2022-11-28T20:51:25.026Z,17.48
2022-11-28T20:53:52.657Z,17.10
2022-11-28T20:56:24.995Z,17.00
2022-11-28T20:58:53.289Z,18.50
2022-11-28T21:01:22.506Z,20.42
2022-11-28T21:03:50.251Z,20.52
2022-11-28T21:06:17.226Z,20.80
2022-11-28T21:08:43.986Z,20.48
2022-11-28T21:11:30.981Z,20.23
2022-11-28T21:14:05.725Z,18.52
2022-11-28T21:16:34.044Z,20.58
2022-11-28T21:19:07.037Z,19.00
2022-11-28T21:21:34.441Z,19.90
2022-11-28T21:24:04.042Z,21.50
2022-11-28T21:26:33.054Z,21.35
2022-11-28T21:29:06.583Z,19.67
2022-11-28T21:31:37.144Z,19.00
2022-11-28T21:34:03.922Z,20.23
2022-11-28T21:36:31.352Z,21.60
2022-11-28T21:39:00.603Z,21.98
2022-11-28T21:41:32.006Z,21.77
2022-11-28T21:44:00.167Z,21.70
2022-11-28T21:46:27.674Z,23.40
2022-11-28T21:48:54.507Z,21.67
2022-11-28T21:51:23.717Z,23.13
2022-11-28T21:53:51.161Z,23.92
2022-11-28T21:56:18.317Z,26.85
2022-11-28T21:58:45.015Z,23.75
2022-11-28T22:01:14.278Z,27.15
2022-11-28T22:03:41.891Z,27.15
2022-11-28T22:06:14.834Z,25.60
2022-11-28T22:08:41.394Z,25.95
2022-11-28T22:11:13.287Z,26.92
2022-11-28T22:13:46.060Z,28.20
2022-11-28T22:16:20.271Z,26.55
2022-11-28T22:18:48.332Z,27.65
2022-11-28T22:24:06.760Z,27.85
2022-11-28T22:26:33.820Z,28.35
2022-11-28T22:29:01.109Z,32.03
2022-11-28T22:31:28.181Z,33.20
2022-11-28T22:33:54.812Z,35.10
2022-11-28T22:36:22.514Z,35.75
2022-11-28T22:38:53.657Z,33.75
2022-11-28T22:41:27.822Z,31.13
2022-11-28T22:43:57.198Z,27.77
2022-11-28T22:46:23.893Z,24.42
2022-11-28T22:48:51.956Z,23.20
2022-11-28T22:51:23.567Z,21.63
2022-11-28T22:53:55.190Z,22.50
2022-11-28T22:56:22.254Z,22.60
2022-11-28T22:58:48.981Z,22.02
2022-11-28T23:01:18.731Z,21.15
2022-11-28T23:03:46.395Z,22.85
2022-11-28T23:06:21.149Z,22.30
2022-11-28T23:08:48.425Z,18.10
2022-11-28T23:11:20.309Z,19.67
2022-11-28T23:13:49.876Z,18.65
2022-11-28T23:16:26.243Z,16.48
2022-11-28T23:18:55.438Z,16.02
2022-11-28T23:21:23.976Z,15.18
2022-11-28T23:23:50.865Z,13.98
2022-11-28T23:26:21.749Z,13.18
2022-11-28T23:28:49.275Z,13.32
2022-11-28T23:31:19.210Z,12.80
2022-11-28T23:33:46.539Z,14.82
2022-11-28T23:36:16.136Z,14.85
2022-11-28T23:38:43.871Z,14.25
2022-11-28T23:41:12.198Z,14.32
2022-11-28T23:43:38.969Z,14.52
2022-11-28T23:46:06.992Z,16.45
2022-11-28T23:48:34.026Z,17.08
2022-11-28T23:51:00.708Z,17.52
2022-11-28T23:53:27.457Z,19.38
2022-11-28T23:55:54.977Z,20.20
2022-11-28T23:58:21.570Z,20.48
